createdAt,value
2018-12-23T00:00:23.130Z,991.56
2018-12-23T00:01:23.141Z,991.60
2018-12-23T00:02:21.717Z,991.61
2018-12-23T00:03:23.647Z,991.56
2018-12-23T00:04:22.133Z,991.54
2018-12-23T00:05:24.169Z,991.50
2018-12-23T00:06:26.136Z,991.50
2018-12-23T00:07:26.630Z,991.55
2018-12-23T00:08:22.951Z,991.49
2018-12-23T00:09:27.184Z,991.57
2018-12-23T00:10:26.047Z,991.58
2018-12-23T00:11:25.137Z,991.63
2018-12-23T00:12:26.084Z,991.60
2018-12-23T00:13:25.682Z,991.67
2018-12-23T00:14:25.658Z,991.58
2018-12-23T00:15:28.320Z,991.62
2018-12-23T00:16:28.131Z,991.65
2018-12-23T00:17:25.471Z,991.64
2018-12-23T00:18:26.632Z,991.66
2018-12-23T00:19:24.895Z,991.65
2018-12-23T00:20:28.678Z,991.74
2018-12-23T00:21:25.227Z,991.74
2018-12-23T00:22:25.511Z,991.76
2018-12-23T00:23:27.087Z,991.79
2018-12-23T00:24:50.649Z,991.82
2018-12-23T00:25:25.825Z,991.81
2018-12-23T00:26:28.595Z,991.80
2018-12-23T00:27:34.166Z,991.86
2018-12-23T00:28:28.134Z,991.85
2018-12-23T00:29:34.181Z,991.81
2018-12-23T00:30:27.638Z,991.81
2018-12-23T00:31:28.636Z,991.78
2018-12-23T00:32:28.662Z,991.80
2018-12-23T00:33:30.099Z,991.80
2018-12-23T00:34:30.181Z,991.84
2018-12-23T00:35:35.138Z,991.90
2018-12-23T00:36:28.710Z,991.93
2018-12-23T00:37:27.910Z,991.95
2018-12-23T00:38:31.669Z,991.95
2018-12-23T00:39:30.169Z,991.96
2018-12-23T00:40:29.397Z,991.96
2018-12-23T00:41:30.168Z,991.98
2018-12-23T00:42:32.646Z,992.00
2018-12-23T00:43:28.967Z,992.04
2018-12-23T00:44:31.175Z,992.04
2018-12-23T00:45:31.182Z,992.07
2018-12-23T00:46:29.599Z,992.10
2018-12-23T00:47:33.650Z,992.10
2018-12-23T00:48:54.636Z,992.10
2018-12-23T00:49:30.221Z,992.13
2018-12-23T00:50:32.161Z,992.06
2018-12-23T00:51:32.144Z,992.12
2018-12-23T00:52:31.659Z,992.12
2018-12-23T00:53:30.730Z,992.09
2018-12-23T00:54:30.949Z,992.07
2018-12-23T00:55:37.162Z,992.05
2018-12-23T00:56:37.352Z,992.02
2018-12-23T00:57:35.135Z,992.08
2018-12-23T00:58:43.666Z,992.10
2018-12-23T00:59:35.649Z,992.12
2018-12-23T01:00:31.995Z,992.13
2018-12-23T01:01:34.142Z,992.10
2018-12-23T01:02:32.342Z,992.11
2018-12-23T01:03:34.132Z,992.13
2018-12-23T01:04:32.747Z,992.13
2018-12-23T01:05:33.976Z,992.17
2018-12-23T01:06:34.632Z,992.16
2018-12-23T01:07:35.138Z,992.15
2018-12-23T01:08:33.360Z,992.15
2018-12-23T01:09:37.135Z,992.20
2018-12-23T01:10:41.650Z,992.14
2018-12-23T01:11:35.635Z,992.15
2018-12-23T01:12:40.643Z,992.12
2018-12-23T01:13:34.091Z,992.12
2018-12-23T01:14:36.137Z,992.09
2018-12-23T01:15:34.472Z,992.16
2018-12-23T01:16:35.712Z,992.16
2018-12-23T01:17:34.859Z,992.23
2018-12-23T01:18:36.641Z,992.27
2018-12-23T01:19:35.110Z,992.24
2018-12-23T01:20:37.166Z,992.33
2018-12-23T01:21:39.681Z,992.31
2018-12-23T01:22:50.176Z,992.33
2018-12-23T01:23:35.741Z,992.30
2018-12-23T01:24:37.664Z,992.35
2018-12-23T01:25:39.669Z,992.33
2018-12-23T01:26:37.342Z,992.35
2018-12-23T01:27:36.564Z,992.37
2018-12-23T01:28:37.818Z,992.32
2018-12-23T01:29:38.655Z,992.31
2018-12-23T01:30:38.145Z,992.31
2018-12-23T01:31:37.235Z,992.34
2018-12-23T01:32:37.450Z,992.39
2018-12-23T01:33:39.634Z,992.38
2018-12-23T01:34:41.597Z,992.35
2018-12-23T01:35:38.063Z,992.40
2018-12-23T01:36:38.271Z,992.38
2018-12-23T01:37:40.138Z,992.37
2018-12-23T01:38:38.613Z,992.36
2018-12-23T01:39:59.814Z,992.34
2018-12-23T01:40:40.012Z,992.31
2018-12-23T01:41:47.149Z,992.35
2018-12-23T01:42:41.143Z,992.36
2018-12-23T01:43:43.136Z,992.36
2018-12-23T01:44:39.580Z,992.34
2018-12-23T01:45:40.626Z,992.34
2018-12-23T01:46:47.632Z,992.37
2018-12-23T01:47:41.089Z,992.38
2018-12-23T01:48:44.172Z,992.35
2018-12-23T01:49:41.691Z,992.36
2018-12-23T01:50:42.137Z,992.41
2018-12-23T01:51:40.836Z,992.42
2018-12-23T01:52:43.342Z,992.45
2018-12-23T01:53:49.137Z,992.46
2018-12-23T01:54:43.142Z,992.45
2018-12-23T01:55:44.134Z,992.45
2018-12-23T01:56:43.157Z,992.47
2018-12-23T01:57:41.739Z,992.49
2018-12-23T01:58:43.649Z,992.46
2018-12-23T01:59:44.660Z,992.42
2018-12-23T02:00:42.248Z,992.49
2018-12-23T02:01:42.475Z,992.49
2018-12-23T02:02:42.688Z,992.56
2018-12-23T02:03:42.907Z,992.54
2018-12-23T02:04:43.108Z,992.54
2018-12-23T02:05:50.175Z,992.53
2018-12-23T02:06:45.140Z,992.46
2018-12-23T02:07:47.643Z,992.48
2018-12-23T02:08:43.890Z,992.49
2018-12-23T02:09:45.641Z,992.45
2018-12-23T02:10:45.141Z,992.53
2018-12-23T02:11:44.245Z,992.57
2018-12-23T02:12:44.346Z,992.53
2018-12-23T02:13:44.441Z,992.55
2018-12-23T02:14:44.644Z,992.51
2018-12-23T02:15:45.846Z,992.50
2018-12-23T02:16:45.057Z,992.51
2018-12-23T02:17:47.149Z,992.52
2018-12-23T02:18:48.108Z,992.56
2018-12-23T02:19:47.638Z,992.49
2018-12-23T02:20:48.605Z,992.57
2018-12-23T02:21:46.594Z,992.56
2018-12-23T02:22:46.283Z,992.60
2018-12-23T02:23:48.188Z,992.57
2018-12-23T02:24:47.642Z,992.49
2018-12-23T02:25:47.214Z,992.56
2018-12-23T02:26:49.595Z,992.54
2018-12-23T02:27:53.691Z,992.52
2018-12-23T02:28:49.144Z,992.58
2018-12-23T02:29:49.153Z,992.56
2018-12-23T02:30:48.619Z,992.57
2018-12-23T02:31:49.676Z,992.62
2018-12-23T02:32:48.029Z,992.64
2018-12-23T02:33:56.137Z,992.69
2018-12-23T02:34:48.528Z,992.65
2018-12-23T02:36:00.716Z,992.67
2018-12-23T02:36:51.662Z,992.64
2018-12-23T02:37:48.996Z,992.67
2018-12-23T02:38:51.139Z,992.71
2018-12-23T02:39:51.141Z,992.74
2018-12-23T02:40:49.459Z,992.77
2018-12-23T02:41:49.724Z,992.80
2018-12-23T02:42:49.837Z,992.75
2018-12-23T02:43:49.926Z,992.76
2018-12-23T02:44:50.144Z,992.77
2018-12-23T02:46:11.354Z,992.79
2018-12-23T02:46:52.138Z,992.78
2018-12-23T02:47:52.642Z,992.73
2018-12-23T02:48:53.684Z,992.70
2018-12-23T02:49:52.637Z,992.67
2018-12-23T02:50:53.134Z,992.63
2018-12-23T02:51:55.141Z,992.63
2018-12-23T02:52:55.178Z,992.63
2018-12-23T02:53:53.183Z,992.62
2018-12-23T02:54:55.632Z,992.63
2018-12-23T02:55:51.841Z,992.68
2018-12-23T02:56:53.045Z,992.69
2018-12-23T02:57:54.142Z,992.68
2018-12-23T02:58:54.142Z,992.67
2018-12-23T03:00:00.137Z,992.68
2018-12-23T03:00:54.635Z,992.72
2018-12-23T03:01:54.687Z,992.70
2018-12-23T03:02:56.665Z,992.68
2018-12-23T03:03:53.274Z,992.69
2018-12-23T03:04:53.372Z,992.69
2018-12-23T03:06:05.523Z,992.69
2018-12-23T03:06:59.709Z,992.69
2018-12-23T03:07:53.911Z,992.68
2018-12-23T03:08:55.694Z,992.66
2018-12-23T03:09:56.167Z,992.68
2018-12-23T03:10:56.141Z,992.65
2018-12-23T03:11:56.949Z,992.63
2018-12-23T03:13:01.671Z,992.63
2018-12-23T03:13:58.646Z,992.58
2018-12-23T03:14:57.736Z,992.58
2018-12-23T03:15:55.359Z,992.61
2018-12-23T03:16:57.137Z,992.61
2018-12-23T03:17:59.139Z,992.60
2018-12-23T03:18:57.687Z,992.60
2018-12-23T03:19:57.640Z,992.59
2018-12-23T03:20:56.981Z,992.61
2018-12-23T03:21:56.185Z,992.58
2018-12-23T03:22:58.135Z,992.59
2018-12-23T03:24:12.177Z,992.62
2018-12-23T03:24:58.635Z,992.57
2018-12-23T03:25:58.673Z,992.54
2018-12-23T03:26:58.190Z,992.56
2018-12-23T03:27:59.136Z,992.59
2018-12-23T03:28:59.187Z,992.60
2018-12-23T03:29:57.644Z,992.59
2018-12-23T03:30:57.890Z,992.63
2018-12-23T03:31:59.639Z,992.63
2018-12-23T03:32:59.092Z,992.63
2018-12-23T03:33:58.298Z,992.62
2018-12-23T03:34:58.503Z,992.68
2018-12-23T03:36:00.637Z,992.65
2018-12-23T03:37:00.637Z,992.66
2018-12-23T03:38:00.678Z,992.71
2018-12-23T03:39:02.634Z,992.71
2018-12-23T03:40:07.156Z,992.74
2018-12-23T03:41:01.144Z,992.72
2018-12-23T03:41:59.589Z,992.67
2018-12-23T03:43:02.688Z,992.68
2018-12-23T03:44:15.638Z,992.64
2018-12-23T03:45:04.134Z,992.66
2018-12-23T03:46:00.348Z,992.64
2018-12-23T03:47:00.575Z,992.61
2018-12-23T03:48:08.635Z,992.58
2018-12-23T03:49:00.960Z,992.54
2018-12-23T03:50:04.091Z,992.53
2018-12-23T03:51:02.102Z,992.49
2018-12-23T03:52:01.450Z,992.51
2018-12-23T03:53:02.680Z,992.50
2018-12-23T03:54:07.688Z,992.53
2018-12-23T03:55:03.647Z,992.51
2018-12-23T03:56:03.684Z,992.51
2018-12-23T03:57:10.278Z,992.51
2018-12-23T03:58:08.554Z,992.51
2018-12-23T03:59:27.135Z,992.53
2018-12-23T04:00:04.638Z,992.55
2018-12-23T04:01:04.707Z,992.50
2018-12-23T04:02:04.661Z,992.54
2018-12-23T04:03:04.661Z,992.60
2018-12-23T04:04:05.141Z,992.59
2018-12-23T04:05:03.461Z,992.60
2018-12-23T04:06:09.674Z,992.58
2018-12-23T04:07:03.927Z,992.66
2018-12-23T04:08:05.105Z,992.66
2018-12-23T04:09:04.308Z,992.59
2018-12-23T04:10:06.133Z,992.61
2018-12-23T04:11:04.761Z,992.64
2018-12-23T04:12:04.850Z,992.66
2018-12-23T04:13:06.640Z,992.63
2018-12-23T04:14:27.237Z,992.62
2018-12-23T04:15:21.155Z,992.63
2018-12-23T04:16:07.155Z,992.63
2018-12-23T04:17:05.777Z,992.66
2018-12-23T04:18:07.639Z,992.68
2018-12-23T04:19:13.636Z,992.71
2018-12-23T04:20:08.093Z,992.71
2018-12-23T04:21:11.237Z,992.73
2018-12-23T04:22:06.650Z,992.76
2018-12-23T04:23:06.800Z,992.74
2018-12-23T04:24:06.932Z,992.73
2018-12-23T04:25:08.653Z,992.74
2018-12-23T04:26:13.169Z,992.76
2018-12-23T04:27:09.137Z,992.69
2018-12-23T04:28:08.629Z,992.72
2018-12-23T04:29:07.696Z,992.66
2018-12-23T04:30:15.664Z,992.66
2018-12-23T04:31:19.885Z,992.66
2018-12-23T04:32:10.134Z,992.65
2018-12-23T04:33:10.139Z,992.70
2018-12-23T04:34:12.458Z,992.68
2018-12-23T04:35:10.679Z,992.65
2018-12-23T04:36:08.840Z,992.66
2018-12-23T04:37:10.635Z,992.70
2018-12-23T04:38:10.230Z,992.73
2018-12-23T04:39:09.445Z,992.74
2018-12-23T04:40:09.709Z,992.82
2018-12-23T04:41:11.671Z,992.80
2018-12-23T04:42:11.037Z,992.78
2018-12-23T04:43:10.136Z,992.80
2018-12-23T04:44:10.331Z,992.77
2018-12-23T04:45:13.097Z,992.77
2018-12-23T04:46:10.690Z,992.77
2018-12-23T04:47:12.658Z,992.77
2018-12-23T04:48:11.114Z,992.78
2018-12-23T04:49:13.147Z,992.77
2018-12-23T04:50:15.183Z,992.71
2018-12-23T04:51:36.677Z,992.75
2018-12-23T04:52:13.666Z,992.70
2018-12-23T04:53:19.672Z,992.72
2018-12-23T04:54:15.668Z,992.62
2018-12-23T04:55:14.156Z,992.66
2018-12-23T04:56:14.195Z,992.63
2018-12-23T04:57:15.157Z,992.66
2018-12-23T04:58:13.759Z,992.65
2018-12-23T04:59:14.639Z,992.64
2018-12-23T05:00:14.710Z,992.69
2018-12-23T05:01:13.198Z,992.70
2018-12-23T05:02:15.183Z,992.76
2018-12-23T05:03:13.595Z,992.75
2018-12-23T05:04:15.637Z,992.80
2018-12-23T05:05:15.686Z,992.83
2018-12-23T05:06:14.106Z,992.81
2018-12-23T05:08:49.429Z,992.77
2018-12-23T05:09:47.972Z,992.77
2018-12-23T05:10:46.585Z,992.75
2018-12-23T05:11:50.457Z,992.81
2018-12-23T05:12:47.805Z,992.75
2018-12-23T05:13:47.035Z,992.80
2018-12-23T05:14:47.117Z,992.78
2018-12-23T05:15:50.944Z,992.73
2018-12-23T05:16:47.529Z,992.72
2018-12-23T05:17:49.464Z,992.72
2018-12-23T05:18:50.443Z,992.74
2018-12-23T05:19:49.948Z,992.74
2018-12-23T05:20:48.285Z,992.71
2018-12-23T05:21:48.559Z,992.71
2018-12-23T05:22:48.589Z,992.70
2018-12-23T05:23:50.462Z,992.73
2018-12-23T05:24:50.449Z,992.72
2018-12-23T05:26:10.021Z,992.83
2018-12-23T05:26:50.166Z,992.82
2018-12-23T05:27:55.000Z,992.78
2018-12-23T05:28:52.943Z,992.80
2018-12-23T05:29:49.567Z,992.79
2018-12-23T05:30:52.491Z,992.75
2018-12-23T05:31:50.812Z,992.82
2018-12-23T05:32:52.984Z,992.80
2018-12-23T05:33:50.187Z,992.78
2018-12-23T05:34:53.937Z,992.81
2018-12-23T05:35:50.512Z,992.77
2018-12-23T05:36:52.827Z,992.72
2018-12-23T05:38:13.474Z,992.74
2018-12-23T05:38:54.940Z,992.76
2018-12-23T05:39:51.273Z,992.81
2018-12-23T05:40:51.545Z,992.87
2018-12-23T05:41:51.697Z,992.90
2018-12-23T05:42:53.532Z,992.86
2018-12-23T05:43:52.039Z,992.92
2018-12-23T05:44:53.943Z,992.93
2018-12-23T05:45:55.941Z,992.88
2018-12-23T05:46:52.565Z,992.88
2018-12-23T05:48:29.452Z,992.93
2018-12-23T05:48:52.870Z,992.98
2018-12-23T05:49:54.940Z,992.99
2018-12-23T05:50:55.899Z,993.00
2018-12-23T05:51:59.951Z,993.06
2018-12-23T05:53:14.546Z,993.10
2018-12-23T05:53:54.738Z,993.07
2018-12-23T05:55:14.992Z,993.03
2018-12-23T05:55:57.967Z,992.96
2018-12-23T05:56:55.986Z,992.95
2018-12-23T05:57:54.452Z,992.91
2018-12-23T05:58:55.669Z,992.94
2018-12-23T05:59:54.893Z,992.94
2018-12-23T06:00:55.086Z,993.03
2018-12-23T06:01:58.978Z,992.95
2018-12-23T06:02:56.948Z,992.92
2018-12-23T06:03:56.402Z,992.92
2018-12-23T06:04:55.975Z,992.97
2018-12-23T06:06:03.942Z,992.95
2018-12-23T06:07:11.939Z,992.97
2018-12-23T06:08:17.423Z,992.99
2018-12-23T06:08:59.403Z,992.94
2018-12-23T06:09:58.484Z,992.94
2018-12-23T06:11:01.440Z,992.92
2018-12-23T06:12:03.954Z,992.86
2018-12-23T06:12:58.958Z,992.85
2018-12-23T06:14:03.979Z,992.84
2018-12-23T06:14:58.455Z,992.87
2018-12-23T06:16:05.498Z,992.82
2018-12-23T06:17:01.482Z,992.88
2018-12-23T06:18:13.448Z,992.87
2018-12-23T06:18:59.971Z,992.83
2018-12-23T06:19:59.944Z,992.80
2018-12-23T06:21:05.990Z,992.80
2018-12-23T06:22:01.428Z,992.79
2018-12-23T06:23:02.448Z,992.80
2018-12-23T06:23:58.924Z,992.85
2018-12-23T06:25:00.950Z,992.89
2018-12-23T06:26:02.943Z,992.96
2018-12-23T06:27:02.956Z,992.95
2018-12-23T06:28:00.958Z,993.02
2018-12-23T06:29:00.585Z,993.01
2018-12-23T06:29:59.746Z,993.08
2018-12-23T06:31:22.958Z,993.08
2018-12-23T06:32:01.989Z,993.11
2018-12-23T06:33:03.953Z,993.08
2018-12-23T06:34:02.449Z,993.08
2018-12-23T06:35:00.653Z,993.11
2018-12-23T06:36:02.439Z,993.13
2018-12-23T06:37:09.731Z,993.13
2018-12-23T06:38:01.271Z,993.09
2018-12-23T06:39:02.941Z,993.13
2018-12-23T06:40:03.455Z,993.06
2018-12-23T06:41:01.769Z,993.03
2018-12-23T06:42:04.465Z,993.00
2018-12-23T06:43:08.949Z,992.97
2018-12-23T06:44:03.947Z,993.00
2018-12-23T06:45:02.570Z,992.99
2018-12-23T06:46:10.441Z,993.03
2018-12-23T06:47:03.896Z,993.06
2018-12-23T06:48:04.907Z,993.05
2018-12-23T06:49:03.263Z,993.02
2018-12-23T06:50:05.406Z,993.06
2018-12-23T06:51:07.441Z,993.10
2018-12-23T06:52:05.523Z,993.10
2018-12-23T06:53:04.040Z,993.09
2018-12-23T06:54:05.232Z,993.14
2018-12-23T06:55:04.425Z,993.09
2018-12-23T06:56:05.643Z,993.00
2018-12-23T06:57:05.401Z,992.98
2018-12-23T06:58:21.427Z,992.97
2018-12-23T06:59:06.952Z,992.97
2018-12-23T07:00:06.967Z,992.98
2018-12-23T07:01:05.315Z,992.96
2018-12-23T07:02:05.442Z,993.00
2018-12-23T07:03:06.665Z,992.99
2018-12-23T07:04:11.506Z,992.95
2018-12-23T07:05:06.911Z,992.93
2018-12-23T07:06:06.260Z,992.91
2018-12-23T07:07:08.901Z,992.98
2018-12-23T07:08:14.452Z,992.93
2018-12-23T07:09:06.724Z,992.96
2018-12-23T07:10:10.442Z,992.97
2018-12-23T07:11:07.144Z,992.98
2018-12-23T07:12:08.372Z,992.98
2018-12-23T07:13:08.596Z,993.04
2018-12-23T07:14:09.441Z,993.04
2018-12-23T07:15:11.940Z,993.03
2018-12-23T07:16:08.200Z,993.02
2018-12-23T07:17:09.944Z,993.06
2018-12-23T07:18:10.467Z,993.05
2018-12-23T07:19:10.441Z,993.06
2018-12-23T07:20:10.473Z,993.13
2018-12-23T07:21:11.606Z,993.15
2018-12-23T07:22:10.223Z,993.13
2018-12-23T07:23:10.940Z,993.15
2018-12-23T07:24:11.450Z,993.14
2018-12-23T07:25:09.652Z,993.15
2018-12-23T07:26:09.873Z,993.13
2018-12-23T07:27:10.081Z,993.13
2018-12-23T07:28:18.114Z,993.12
2018-12-23T07:29:11.415Z,993.09
2018-12-23T07:30:12.445Z,993.11
2018-12-23T07:31:14.445Z,993.03
2018-12-23T07:32:10.920Z,993.02
2018-12-23T07:33:11.042Z,992.99
2018-12-23T07:34:15.373Z,993.04
2018-12-23T07:35:12.951Z,993.00
2018-12-23T07:36:13.444Z,992.99
2018-12-23T07:37:15.501Z,993.01
2018-12-23T07:38:13.500Z,993.05
2018-12-23T07:39:14.903Z,993.02
2018-12-23T07:40:12.127Z,993.07
2018-12-23T07:41:12.930Z,993.02
2018-12-23T07:42:15.965Z,993.00
2018-12-23T07:43:15.410Z,993.03
2018-12-23T07:44:14.458Z,993.05
2018-12-23T07:45:16.442Z,993.04
2018-12-23T07:46:16.967Z,993.07
2018-12-23T07:47:20.943Z,993.10
2018-12-23T07:48:15.899Z,993.11
2018-12-23T07:49:13.625Z,993.16
2018-12-23T07:50:17.445Z,993.13
2018-12-23T07:51:17.998Z,993.14
2018-12-23T07:52:17.949Z,993.14
2018-12-23T07:53:14.285Z,993.12
2018-12-23T07:54:16.443Z,993.16
2018-12-23T07:55:17.505Z,993.19
2018-12-23T07:56:14.813Z,993.19
2018-12-23T07:57:14.936Z,993.21
2018-12-23T07:58:16.941Z,993.22
2018-12-23T07:59:16.989Z,993.18
2018-12-23T08:00:15.443Z,993.22
2018-12-23T08:01:19.475Z,993.18
2018-12-23T08:02:15.829Z,993.15
2018-12-23T08:03:17.070Z,993.14
2018-12-23T08:06:04.708Z,993.14
2018-12-23T08:06:49.762Z,993.16
2018-12-23T08:07:59.855Z,993.13
2018-12-23T08:08:51.800Z,993.12
2018-12-23T08:09:50.250Z,993.09
2018-12-23T08:10:52.306Z,993.12
2018-12-23T08:13:28.927Z,993.08
2018-12-23T08:14:26.392Z,993.08
2018-12-23T08:15:24.667Z,993.13
2018-12-23T08:16:24.747Z,993.11
2018-12-23T08:17:52.381Z,993.13
2018-12-23T08:18:26.250Z,993.14
2018-12-23T08:19:38.267Z,993.11
2018-12-23T08:20:26.223Z,993.13
2018-12-23T08:21:24.742Z,993.10
2018-12-23T08:22:44.726Z,993.10
2018-12-23T08:23:26.228Z,993.10
2018-12-23T08:24:49.271Z,993.10
2018-12-23T08:25:25.281Z,993.10
2018-12-23T08:26:26.779Z,993.09
2018-12-23T08:27:46.822Z,993.06
2018-12-23T08:28:31.780Z,993.03
2018-12-23T08:29:26.327Z,993.03
2018-12-23T08:30:46.891Z,993.04
2018-12-23T08:31:25.794Z,993.07
2018-12-23T08:32:26.733Z,993.12
2018-12-23T08:33:25.743Z,993.08
2018-12-23T08:34:27.271Z,993.09
2018-12-23T08:35:29.270Z,993.12
2018-12-23T08:36:26.224Z,993.08
2018-12-23T08:37:28.093Z,993.08
2018-12-23T08:38:30.771Z,993.07
2018-12-23T08:39:28.759Z,993.08
2018-12-23T08:40:28.350Z,993.10
2018-12-23T08:43:04.490Z,993.11
2018-12-23T08:44:02.708Z,993.09
2018-12-23T08:45:14.725Z,993.11
2018-12-23T08:46:01.190Z,993.07
2018-12-23T08:46:59.465Z,993.11
2018-12-23T08:48:07.189Z,993.07
2018-12-23T08:49:01.698Z,993.10
2018-12-23T08:49:59.937Z,993.09
2018-12-23T08:51:03.684Z,993.13
2018-12-23T08:52:01.738Z,993.09
2018-12-23T08:53:03.191Z,993.13
2018-12-23T08:54:01.373Z,993.14
2018-12-23T08:55:04.185Z,993.11
2018-12-23T08:56:00.784Z,993.14
2018-12-23T08:57:02.693Z,993.10
2018-12-23T08:58:03.742Z,993.09
2018-12-23T08:59:02.707Z,993.07
2018-12-23T09:00:03.215Z,993.04
2018-12-23T09:01:01.638Z,993.06
2018-12-23T09:02:03.750Z,993.03
2018-12-23T09:03:06.099Z,993.00
2018-12-23T09:04:04.187Z,992.96
2018-12-23T09:05:04.186Z,992.93
2018-12-23T09:06:02.510Z,992.92
2018-12-23T09:07:03.749Z,992.90
2018-12-23T09:08:03.877Z,992.89
2018-12-23T09:09:07.638Z,992.91
2018-12-23T09:10:03.116Z,992.85
2018-12-23T09:11:05.246Z,992.87
2018-12-23T09:12:05.664Z,992.87
2018-12-23T09:13:07.221Z,992.85
2018-12-23T09:14:05.710Z,992.78
2018-12-23T09:15:19.690Z,992.78
2018-12-23T09:16:05.641Z,992.80
2018-12-23T09:17:07.235Z,992.74
2018-12-23T09:18:06.227Z,992.76
2018-12-23T09:19:05.687Z,992.79
2018-12-23T09:20:08.741Z,992.75
2018-12-23T09:21:05.084Z,992.71
2018-12-23T09:22:09.196Z,992.68
2018-12-23T09:23:09.241Z,992.67
2018-12-23T09:24:05.702Z,992.70
2018-12-23T09:25:10.700Z,992.67
2018-12-23T09:26:07.040Z,992.66
2018-12-23T09:27:06.257Z,992.64
2018-12-23T09:28:11.004Z,992.65
2018-12-23T09:29:11.149Z,992.66
2018-12-23T09:30:18.852Z,992.63
2018-12-23T09:31:06.971Z,992.64
2018-12-23T09:32:08.710Z,992.64
2018-12-23T09:33:08.190Z,992.64
2018-12-23T09:34:07.451Z,992.60
2018-12-23T09:35:07.538Z,992.61
2018-12-23T09:36:07.775Z,992.60
2018-12-23T09:37:09.699Z,992.56
2018-12-23T09:38:08.022Z,992.61
2018-12-23T09:39:08.159Z,992.64
2018-12-23T09:40:12.220Z,992.58
2018-12-23T09:41:10.149Z,992.62
2018-12-23T09:42:08.755Z,992.60
2018-12-23T09:43:14.837Z,992.64
2018-12-23T09:44:10.709Z,992.55
2018-12-23T09:45:09.317Z,992.55
2018-12-23T09:46:13.236Z,992.58
2018-12-23T09:47:13.732Z,992.60
2018-12-23T09:48:12.760Z,992.56
2018-12-23T09:49:11.714Z,992.51
2018-12-23T09:50:10.171Z,992.51
2018-12-23T09:51:11.277Z,992.47
2018-12-23T09:52:10.515Z,992.49
2018-12-23T09:53:12.703Z,992.45
2018-12-23T09:54:26.687Z,992.39
2018-12-23T09:55:11.123Z,992.38
2018-12-23T09:56:13.142Z,992.36
2018-12-23T09:57:13.199Z,992.40
2018-12-23T09:58:13.211Z,992.37
2018-12-23T09:59:13.691Z,992.39
2018-12-23T10:00:11.888Z,992.38
2018-12-23T10:01:18.090Z,992.38
2018-12-23T10:02:12.303Z,992.33
2018-12-23T10:03:12.410Z,992.35
2018-12-23T10:04:16.255Z,992.35
2018-12-23T10:05:13.804Z,992.29
2018-12-23T10:06:13.912Z,992.29
2018-12-23T10:07:13.110Z,992.30
2018-12-23T10:08:13.319Z,992.26
2018-12-23T10:09:17.189Z,992.24
2018-12-23T10:10:14.662Z,992.28
2018-12-23T10:11:14.676Z,992.25
2018-12-23T10:12:15.043Z,992.24
2018-12-23T10:13:14.151Z,992.25
2018-12-23T10:14:30.193Z,992.24
2018-12-23T10:15:16.193Z,992.25
2018-12-23T10:16:14.652Z,992.22
2018-12-23T10:17:16.690Z,992.22
2018-12-23T10:18:15.015Z,992.25
2018-12-23T10:19:15.233Z,992.23
2018-12-23T10:20:15.445Z,992.20
2018-12-23T10:21:17.192Z,992.17
2018-12-23T10:22:17.041Z,992.15
2018-12-23T10:23:21.711Z,992.13
2018-12-23T10:24:17.692Z,992.09
2018-12-23T10:25:18.189Z,992.10
2018-12-23T10:26:16.391Z,992.08
2018-12-23T10:27:16.600Z,992.02
2018-12-23T10:28:16.817Z,992.01
2018-12-23T10:29:18.692Z,991.93
2018-12-23T10:30:18.705Z,991.92
2018-12-23T10:31:17.319Z,991.92
2018-12-23T10:32:18.475Z,991.85
2018-12-23T10:33:17.636Z,991.88
2018-12-23T10:34:17.867Z,991.88
2018-12-23T10:35:18.073Z,991.81
2018-12-23T10:36:20.255Z,991.80
2018-12-23T10:37:18.502Z,991.77
2018-12-23T10:38:20.284Z,991.79
2018-12-23T10:39:19.697Z,991.81
2018-12-23T10:40:26.700Z,991.81
2018-12-23T10:41:19.024Z,991.76
2018-12-23T10:42:19.262Z,991.82
2018-12-23T10:43:19.470Z,991.81
2018-12-23T10:44:21.217Z,991.80
2018-12-23T10:45:23.765Z,991.74
2018-12-23T10:46:19.905Z,991.77
2018-12-23T10:47:21.691Z,991.77
2018-12-23T10:48:22.198Z,991.77
2018-12-23T10:49:20.408Z,991.77
2018-12-23T10:50:21.626Z,991.76
2018-12-23T10:51:22.706Z,991.72
2018-12-23T10:52:27.715Z,991.70
2018-12-23T10:53:21.189Z,991.67
2018-12-23T10:54:22.427Z,991.62
2018-12-23T10:55:21.618Z,991.61
2018-12-23T10:56:22.819Z,991.59
2018-12-23T10:57:22.084Z,991.56
2018-12-23T10:58:22.170Z,991.54
2018-12-23T10:59:22.381Z,991.60
2018-12-23T11:00:24.198Z,991.55
2018-12-23T11:01:22.777Z,991.54
2018-12-23T11:02:23.021Z,991.53
2018-12-23T11:03:23.100Z,991.44
2018-12-23T11:04:23.307Z,991.42
2018-12-23T11:05:23.529Z,991.36
2018-12-23T11:06:23.760Z,991.39
2018-12-23T11:07:25.699Z,991.34
2018-12-23T11:08:27.004Z,991.32
2018-12-23T11:09:24.393Z,991.32
2018-12-23T11:10:32.196Z,991.34
2018-12-23T11:11:26.704Z,991.23
2018-12-23T11:12:24.922Z,991.28
2018-12-23T11:13:25.187Z,991.22
2018-12-23T11:14:26.050Z,991.19
2018-12-23T11:15:25.381Z,991.16
2018-12-23T11:16:25.591Z,991.15
2018-12-23T11:17:28.701Z,991.11
2018-12-23T11:18:26.052Z,991.08
2018-12-23T11:19:26.249Z,991.12
2018-12-23T11:20:28.200Z,991.01
2018-12-23T11:21:28.193Z,991.01
2018-12-23T11:22:26.782Z,991.04
2018-12-23T11:23:26.979Z,991.02
2018-12-23T11:24:27.203Z,991.02
2018-12-23T11:25:29.231Z,990.92
2018-12-23T11:26:27.538Z,990.96
2018-12-23T11:27:28.764Z,990.95
2018-12-23T11:28:27.882Z,990.96
2018-12-23T11:29:29.713Z,990.88
2018-12-23T11:30:30.194Z,990.88
2018-12-23T11:31:30.192Z,990.88
2018-12-23T11:32:28.662Z,990.93
2018-12-23T11:33:28.865Z,990.92
2018-12-23T11:34:32.718Z,990.88
2018-12-23T11:35:29.311Z,990.89
2018-12-23T11:36:31.204Z,990.81
2018-12-23T11:37:30.679Z,990.79
2018-12-23T11:38:35.591Z,990.79
2018-12-23T11:39:30.024Z,990.82
2018-12-23T11:40:30.584Z,990.77
2018-12-23T11:41:37.224Z,990.79
2018-12-23T11:42:32.216Z,990.80
2018-12-23T11:43:32.214Z,990.79
2018-12-23T11:44:34.704Z,990.78
2018-12-23T11:45:31.081Z,990.79
2018-12-23T11:46:31.262Z,990.75
2018-12-23T11:47:31.469Z,990.73
2018-12-23T11:48:31.695Z,990.71
2018-12-23T11:49:31.890Z,990.71
2018-12-23T11:50:33.153Z,990.72
2018-12-23T11:51:33.346Z,990.67
2018-12-23T11:52:34.232Z,990.63
2018-12-23T11:53:36.219Z,990.65
2018-12-23T11:54:36.695Z,990.63
2018-12-23T11:55:33.788Z,990.67
2018-12-23T11:56:36.212Z,990.63
2018-12-23T11:57:33.431Z,990.64
2018-12-23T11:58:33.646Z,990.65
2018-12-23T11:59:35.702Z,990.57
2018-12-23T12:00:34.036Z,990.54
2018-12-23T12:01:34.279Z,990.57
2018-12-23T12:02:36.221Z,990.50
2018-12-23T12:03:36.197Z,990.53
2018-12-23T12:04:34.787Z,990.52
2018-12-23T12:05:36.467Z,990.50
2018-12-23T12:06:35.262Z,990.46
2018-12-23T12:07:35.470Z,990.42
2018-12-23T12:08:43.664Z,990.40
2018-12-23T12:09:35.779Z,990.36
2018-12-23T12:10:35.993Z,990.31
2018-12-23T12:11:36.243Z,990.27
2018-12-23T12:12:36.410Z,990.30
2018-12-23T12:13:36.614Z,990.24
2018-12-23T12:14:38.739Z,990.27
2018-12-23T12:15:37.026Z,990.24
2018-12-23T12:16:39.223Z,990.29
2018-12-23T12:17:38.460Z,990.24
2018-12-23T12:18:39.195Z,990.24
2018-12-23T12:19:41.696Z,990.23
2018-12-23T12:20:38.658Z,990.20
2018-12-23T12:21:42.220Z,990.17
2018-12-23T12:22:41.270Z,990.14
2018-12-23T12:23:40.210Z,990.09
2018-12-23T12:24:41.712Z,990.07
2018-12-23T12:25:38.944Z,990.11
2018-12-23T12:26:39.156Z,990.05
2018-12-23T12:27:39.373Z,990.04
2018-12-23T12:28:39.583Z,990.03
2018-12-23T12:29:39.790Z,989.96
2018-12-23T12:30:41.697Z,989.98
2018-12-23T12:32:04.707Z,989.93
2018-12-23T12:32:40.278Z,989.89
2018-12-23T12:33:40.527Z,989.89
2018-12-23T12:34:44.196Z,989.84
2018-12-23T12:35:40.891Z,989.89
2018-12-23T12:36:42.706Z,989.87